^^
Marion, Virginia Banner
 

Adwolf, VA. Station Historical Data
[ Providing Data Since 6/07/2007 ]
Station Historical Data
Daily Summary for July 17, 2017 Units:  Metric    English   Both
« Previous Day
Next Day »
Daily Weekly Monthly Yearly Custom
  High: Low: Average:
Temperature: 31.8 °C 15.9 °C 23.4 °C
Dew Point: 20.4 °C 14.3 °C 16.8 °C
Humidity: 93% 35% 70%
Wind Speed: 16.7km/h 0km/h 5km/h
Wind Gust: 16.7km/h - -
Wind- - SSE
Pressure: 1021.2 hPa 1018.5 hPa -
Precipitation: 0 mm    
Historical Graphs
 
 
Tabular Data for July 17, 2017
Time Temperature Dew Point Pressure Wind Wind Speed Wind Gust Humidity Rainfall Rate (Hourly) solar Conditions
00:00 18 °C 15.9 °C 1019.5 hPa Calm     88% 0 mm WeatherDisplay:10.37 W/m2 CLR
00:05 17.9 °C 16.1 °C 1019.5 hPa Calm     89% 0 mm WeatherDisplay:10.37 W/m2 CLR
00:10 17.9 °C 16 °C 1019.5 hPa North 1.9 km/h 1.9 km/h 89% 0 mm WeatherDisplay:10.37 W/m2 CLR
00:15 17.8 °C 16 °C 1019.5 hPa Calm     89% 0 mm WeatherDisplay:10.37 W/m2 CLR
00:20 17.8 °C 16 °C 1019.5 hPa Calm     89% 0 mm WeatherDisplay:10.37 W/m2 CLR
00:25 17.8 °C 15.9 °C 1019.5 hPa North 3.7 km/h 3.7 km/h 89% 0 mm WeatherDisplay:10.37 W/m2 CLR
00:30 17.7 °C 15.9 °C 1019.5 hPa North 3.2 km/h 3.2 km/h 89% 0 mm WeatherDisplay:10.37 W/m2 CLR
00:35 17.7 °C 15.9 °C 1019.5 hPa North 3.7 km/h 3.7 km/h 89% 0 mm WeatherDisplay:10.37 W/m2 CLR
00:40 17.7 °C 15.9 °C 1019.5 hPa North 1.9 km/h 1.9 km/h 89% 0 mm WeatherDisplay:10.37 W/m2 CLR
00:45 17.7 °C 15.8 °C 1019.9 hPa Calm     89% 0 mm WeatherDisplay:10.37 W/m2 CLR
00:50 17.6 °C 15.7 °C 1019.9 hPa North 1.9 km/h   89% 0 mm WeatherDisplay:10.37 W/m2 CLR
00:55 17.5 °C 15.8 °C 1019.9 hPa North 1.9 km/h 1.9 km/h 90% 0 mm WeatherDisplay:10.37 W/m2 CLR
01:00 17.4 °C 15.7 °C 1019.9 hPa North 1.9 km/h   90% 0 mm WeatherDisplay:10.37 W/m2 CLR
01:05 17.4 °C 15.7 °C 1019.5 hPa North 1.9 km/h 1.9 km/h 90% 0 mm WeatherDisplay:10.37 W/m2 CLR
01:10 17.4 °C 15.7 °C 1019.5 hPa North 1.9 km/h 1.9 km/h 90% 0 mm WeatherDisplay:10.37 W/m2 CLR
01:15 17.4 °C 15.8 °C 1019.5 hPa North 1.9 km/h 1.9 km/h 90% 0 mm WeatherDisplay:10.37 W/m2 CLR
01:20 17.4 °C 15.8 °C 1019.5 hPa North 3.7 km/h 3.7 km/h 90% 0 mm WeatherDisplay:10.37 W/m2 CLR
01:25 17.5 °C 15.8 °C 1019.5 hPa North 3.7 km/h 3.7 km/h 90% 0 mm WeatherDisplay:10.37 W/m2 CLR
01:30 17.4 °C 15.8 °C 1019.5 hPa North 3.7 km/h 3.7 km/h 90% 0 mm WeatherDisplay:10.37 W/m2 CLR
01:35 17.4 °C 15.6 °C 1019.5 hPa North 1.9 km/h 1.9 km/h 89% 0 mm WeatherDisplay:10.37 W/m2 CLR
01:40 17.4 °C 15.7 °C 1019.5 hPa North 3.7 km/h 3.7 km/h 90% 0 mm WeatherDisplay:10.37 W/m2 CLR
01:45 17.3 °C 15.4 °C 1019.5 hPa North 3.7 km/h 3.7 km/h 89% 0 mm WeatherDisplay:10.37 W/m2 CLR
01:50 17.2 °C 15.5 °C 1019.5 hPa North 1.6 km/h   90% 0 mm WeatherDisplay:10.37 W/m2 CLR
01:55 17.1 °C 15.4 °C 1019.5 hPa North 3.2 km/h 3.2 km/h 90% 0 mm WeatherDisplay:10.37 W/m2 CLR
02:00 17 °C 15.3 °C 1019.5 hPa North 1.9 km/h 1.9 km/h 90% 0 mm WeatherDisplay:10.37 W/m2 CLR
02:05 17 °C 15.3 °C 1019.5 hPa North 1.9 km/h 1.9 km/h 90% 0 mm WeatherDisplay:10.37 W/m2 CLR
02:10 17 °C 15.5 °C 1019.5 hPa North 3.7 km/h 3.7 km/h 91% 0 mm WeatherDisplay:10.37 W/m2 CLR
02:15 17 °C 15.5 °C 1019.2 hPa North 3.7 km/h 3.7 km/h 91% 0 mm WeatherDisplay:10.37 W/m2 CLR
02:16 17 °C 15.5 °C 1019.5 hPa North 3.7 km/h 3.7 km/h 91% 0 mm WeatherDisplay:10.37 W/m2 CLR
02:21 17 °C 15.3 °C 1019.5 hPa North 1.9 km/h 1.9 km/h 90% 0 mm WeatherDisplay:10.37 W/m2 CLR
02:26 17 °C 15.3 °C 1019.5 hPa North 3.7 km/h 3.7 km/h 90% 0 mm WeatherDisplay:10.37 W/m2 CLR
02:31 16.9 °C 15.3 °C 1019.5 hPa East 3.7 km/h 3.7 km/h 90% 0 mm WeatherDisplay:10.37 W/m2 CLR
02:36 16.9 °C 15.2 °C 1019.5 hPa East 3.7 km/h 3.7 km/h 90% 0 mm WeatherDisplay:10.37 W/m2 CLR
02:41 16.9 °C 15.2 °C 1019.5 hPa East 5.6 km/h 5.6 km/h 90% 0 mm WeatherDisplay:10.37 W/m2 CLR
02:46 16.9 °C 15.2 °C 1019.2 hPa ESE 5.6 km/h 5.6 km/h 90% 0 mm WeatherDisplay:10.37 W/m2 CLR
02:51 16.9 °C 15.2 °C 1019.2 hPa ESE 3.2 km/h 3.2 km/h 90% 0 mm WeatherDisplay:10.37 W/m2 CLR
02:56 16.9 °C 15.2 °C 1019.2 hPa ESE 3.7 km/h 3.7 km/h 90% 0 mm WeatherDisplay:10.37 W/m2 CLR
03:01 16.9 °C 15.4 °C 1018.8 hPa ESE 1.9 km/h 1.9 km/h 91% 0 mm WeatherDisplay:10.37 W/m2 CLR
03:06 16.9 °C 15.4 °C 1018.8 hPa ESE 3.7 km/h 3.7 km/h 91% 0 mm WeatherDisplay:10.37 W/m2 CLR
03:11 16.9 °C 15.4 °C 1018.8 hPa ESE 1.9 km/h 1.9 km/h 91% 0 mm WeatherDisplay:10.37 W/m2 CLR
03:16 16.9 °C 15.4 °C 1018.8 hPa ESE 5.6 km/h 5.6 km/h 91% 0 mm WeatherDisplay:10.37 W/m2 CLR
03:21 16.9 °C 15.4 °C 1018.8 hPa ESE 3.7 km/h 3.7 km/h 91% 0 mm WeatherDisplay:10.37 W/m2 CLR
03:26 16.8 °C 15.2 °C 1018.8 hPa ESE 1.9 km/h 1.9 km/h 90% 0 mm WeatherDisplay:10.37 W/m2 CLR
03:31 16.8 °C 15.3 °C 1018.8 hPa ESE 1.9 km/h 1.9 km/h 91% 0 mm WeatherDisplay:10.37 W/m2 CLR
03:36 16.7 °C 15.2 °C 1018.8 hPa Calm     91% 0 mm WeatherDisplay:10.37 W/m2 CLR
03:41 16.6 °C 15.1 °C 1018.8 hPa ESE 1.9 km/h 1.9 km/h 91% 0 mm WeatherDisplay:10.37 W/m2 CLR
03:46 16.6 °C 15.1 °C 1018.5 hPa ESE 1.9 km/h   91% 0 mm WeatherDisplay:10.37 W/m2 CLR
03:51 16.5 °C 15 °C 1018.5 hPa ESE 3.7 km/h 3.7 km/h 91% 0 mm WeatherDisplay:10.37 W/m2 CLR
03:56 16.6 °C 15.2 °C 1018.5 hPa ESE 3.7 km/h 3.7 km/h 92% 0 mm WeatherDisplay:10.37 W/m2 CLR
04:01 16.6 °C 15.2 °C 1018.5 hPa ESE 3.7 km/h 3.7 km/h 92% 0 mm WeatherDisplay:10.37 W/m2 CLR
04:06 16.6 °C 15.1 °C 1018.5 hPa ESE 3.7 km/h 3.7 km/h 91% 0 mm WeatherDisplay:10.37 W/m2 CLR
04:11 16.6 °C 15.1 °C 1018.5 hPa ESE 3.7 km/h 3.7 km/h 91% 0 mm WeatherDisplay:10.37 W/m2 CLR
04:16 16.5 °C 15 °C 1018.5 hPa ESE 3.7 km/h 3.7 km/h 91% 0 mm WeatherDisplay:10.37 W/m2 CLR
04:21 16.4 °C 14.9 °C 1018.5 hPa ESE 1.9 km/h 1.9 km/h 91% 0 mm WeatherDisplay:10.37 W/m2 CLR
04:26 16.4 °C 14.9 °C 1018.8 hPa ESE 1.9 km/h   91% 0 mm WeatherDisplay:10.37 W/m2 CLR
04:31 16.3 °C 14.8 °C 1018.8 hPa ESE 1.9 km/h 1.9 km/h 91% 0 mm WeatherDisplay:10.37 W/m2 CLR
04:36 16.2 °C 14.7 °C 1018.8 hPa ESE 3.2 km/h 3.2 km/h 91% 0 mm WeatherDisplay:10.37 W/m2 CLR
04:41 16.1 °C 14.8 °C 1018.8 hPa ESE 1.9 km/h 1.9 km/h 92% 0 mm WeatherDisplay:10.37 W/m2 CLR
04:46 16.1 °C 14.8 °C 1018.8 hPa ESE 1.9 km/h 1.9 km/h 92% 0 mm WeatherDisplay:10.37 W/m2 CLR
04:51 16.1 °C 14.7 °C 1018.5 hPa ESE 3.2 km/h 3.2 km/h 92% 0 mm WeatherDisplay:10.37 W/m2 CLR
04:56 16.1 °C 14.7 °C 1018.8 hPa ESE 4.8 km/h 4.8 km/h 92% 0 mm WeatherDisplay:10.37 W/m2 CLR
05:01 16.1 °C 14.8 °C 1018.8 hPa ESE 3.7 km/h 3.7 km/h 92% 0 mm WeatherDisplay:10.37 W/m2 CLR
05:06 16.1 °C 14.8 °C 1018.8 hPa ESE 3.7 km/h 3.7 km/h 92% 0 mm WeatherDisplay:10.37 W/m2 CLR
05:11 16.1 °C 14.8 °C 1018.8 hPa ESE 3.7 km/h 3.7 km/h 92% 0 mm WeatherDisplay:10.37 W/m2 CLR
05:16 16.1 °C 14.8 °C 1018.8 hPa ESE 3.7 km/h 3.7 km/h 92% 0 mm WeatherDisplay:10.37 W/m2 CLR
05:21 16.2 °C 14.8 °C 1018.8 hPa ESE 3.2 km/h 3.2 km/h 92% 0 mm WeatherDisplay:10.37 W/m2 CLR
05:26 16.2 °C 14.8 °C 1019.2 hPa ESE 5.6 km/h 5.6 km/h 92% 0 mm WeatherDisplay:10.37 W/m2 CLR
05:31 16.2 °C 14.8 °C 1019.2 hPa ESE 3.2 km/h 3.2 km/h 92% 0 mm WeatherDisplay:10.37 W/m2 CLR
05:36 16.2 °C 15 °C 1019.2 hPa ESE 3.7 km/h 3.7 km/h 93% 0 mm WeatherDisplay:10.37 W/m2 CLR
05:41 16.2 °C 14.9 °C 1019.2 hPa ESE 3.7 km/h 3.7 km/h 92% 0 mm WeatherDisplay:10.37 W/m2 CLR
05:46 16.2 °C 14.9 °C 1019.2 hPa ESE 3.7 km/h 3.7 km/h 92% 0 mm WeatherDisplay:10.37 W/m2 CLR
05:51 16.2 °C 14.8 °C 1019.2 hPa ESE 3.7 km/h 3.7 km/h 92% 0 mm WeatherDisplay:10.37 W/m2 CLR
05:56 16.2 °C 14.8 °C 1019.2 hPa ESE 1.9 km/h 1.9 km/h 92% 0 mm WeatherDisplay:10.37 W/m2 CLR
06:01 16.1 °C 14.8 °C 1019.2 hPa ESE 3.7 km/h 3.7 km/h 92% 0 mm WeatherDisplay:10.37 W/m2 CLR
06:06 16.1 °C 14.7 °C 1019.2 hPa ESE 3.7 km/h 3.7 km/h 92% 0 mm WeatherDisplay:10.37 W/m2 CLR
06:11 16.1 °C 14.7 °C 1019.2 hPa ESE 3.7 km/h 3.7 km/h 92% 0 mm WeatherDisplay:10.37 W/m2 CLR
06:16 15.9 °C 14.6 °C 1019.2 hPa ESE 3.7 km/h 3.7 km/h 92% 0 mm WeatherDisplay:10.37 W/m2 CLR
06:21 16 °C 14.8 °C 1019.5 hPa ESE 5.6 km/h 5.6 km/h 93% 0 mm WeatherDisplay:10.37 W/m2 CLR
06:26 16 °C 14.8 °C 1019.5 hPa ESE 1.9 km/h 1.9 km/h 93% 0 mm WeatherDisplay:10.37 W/m2 CLR
06:31 16 °C 14.7 °C 1019.5 hPa ESE 1.9 km/h 1.9 km/h 92% 0 mm WeatherDisplay:10.37 W/m2 CLR
06:36 15.9 °C 14.8 °C 1019.5 hPa ESE 1.9 km/h 1.9 km/h 93% 0 mm WeatherDisplay:10.37 W/m2 CLR
06:41 16 °C 14.8 °C 1019.5 hPa Calm     93% 0 mm WeatherDisplay:10.37 W/m2 CLR
06:46 16 °C 14.8 °C 1019.5 hPa Calm     93% 0 mm WeatherDisplay:10.37 W/m2 CLR
06:51 16 °C 14.8 °C 1019.5 hPa Calm     93% 0 mm WeatherDisplay:10.37 W/m2 CLR
06:56 16 °C 14.8 °C 1019.5 hPa Calm     93% 0 mm WeatherDisplay:10.37 W/m2 CLR
07:00 16.1 °C 14.9 °C 1019.9 hPa ESE 3.7 km/h 3.7 km/h 93% 0 mm WeatherDisplay:10.37 W/m2 CLR
07:05 16.1 °C 14.9 °C 1019.9 hPa ESE 3.7 km/h 3.7 km/h 93% 0 mm WeatherDisplay:10.37 W/m2 CLR
07:10 16.3 °C 15.1 °C 1019.9 hPa ESE 5.6 km/h 5.6 km/h 93% 0 mm WeatherDisplay:10.37 W/m2 CLR
07:15 16.4 °C 15.1 °C 1019.9 hPa ESE 3.7 km/h 3.7 km/h 92% 0 mm WeatherDisplay:10.37 W/m2 CLR
07:20 16.4 °C 15.1 °C 1019.9 hPa ESE 5.6 km/h 5.6 km/h 92% 0 mm WeatherDisplay:10.37 W/m2 CLR
07:21 16.5 °C 15.2 °C 1020.2 hPa ESE 5.6 km/h 5.6 km/h 92% 0 mm WeatherDisplay:10.37 W/m2 CLR
07:26 16.6 °C 15.3 °C 1020.2 hPa ESE 5.6 km/h 5.6 km/h 92% 0 mm WeatherDisplay:10.37 W/m2 CLR
07:31 16.7 °C 15.4 °C 1020.2 hPa ESE 4.8 km/h 4.8 km/h 92% 0 mm WeatherDisplay:10.37 W/m2 CLR
07:36 16.8 °C 15.5 °C 1020.2 hPa ESE 5.6 km/h 5.6 km/h 92% 0 mm WeatherDisplay:10.37 W/m2 CLR
07:41 17.2 °C 15.8 °C 1020.2 hPa ESE 5.6 km/h 5.6 km/h 92% 0 mm WeatherDisplay:10.37 W/m2 CLR
07:46 17.4 °C 15.9 °C 1020.2 hPa ESE 5.6 km/h 5.6 km/h 91% 0 mm WeatherDisplay:10.37 W/m2 CLR
07:51 17.6 °C 16.1 °C 1020.5 hPa ESE 5.6 km/h 5.6 km/h 91% 0 mm WeatherDisplay:10.37 W/m2 CLR
07:56 17.9 °C 16.4 °C 1020.5 hPa ESE 5.6 km/h 5.6 km/h 91% 0 mm WeatherDisplay:10.37 W/m2 CLR
08:01 18.1 °C 16.4 °C 1020.5 hPa East 5.6 km/h 5.6 km/h 90% 0 mm WeatherDisplay:10.37 W/m2 CLR
08:06 18.3 °C 16.4 °C 1020.5 hPa East 9.3 km/h 9.3 km/h 89% 0 mm WeatherDisplay:10.37 W/m2 CLR
08:11 18.7 °C 16.8 °C 1020.5 hPa East 5.6 km/h 5.6 km/h 89% 0 mm WeatherDisplay:10.37 W/m2 CLR
08:16 19 °C 17.1 °C 1020.2 hPa East 5.6 km/h 5.6 km/h 89% 0 mm WeatherDisplay:10.37 W/m2 CLR
08:21 19.4 °C 17.2 °C 1020.5 hPa NE 5.6 km/h 5.6 km/h 87% 0 mm WeatherDisplay:10.37 W/m2 CLR
08:26 19.6 °C 17.4 °C 1020.5 hPa NE 5.6 km/h 5.6 km/h 87% 0 mm WeatherDisplay:10.37 W/m2 CLR
08:31 19.8 °C 17.6 °C 1020.5 hPa NE 5.6 km/h 5.6 km/h 87% 0 mm WeatherDisplay:10.37 W/m2 CLR
08:36 19.9 °C 17.7 °C 1020.5 hPa NE 5.6 km/h 5.6 km/h 87% 0 mm WeatherDisplay:10.37 W/m2 CLR
08:41 20.4 °C 17.9 °C 1020.5 hPa NE 3.7 km/h 3.7 km/h 86% 0 mm WeatherDisplay:10.37 W/m2 CLR
08:46 20.7 °C 18.1 °C 1020.5 hPa NE 3.7 km/h 3.7 km/h 85% 0 mm WeatherDisplay:10.37 W/m2 CLR
08:51 20.9 °C 18.3 °C 1020.5 hPa NE 3.2 km/h 3.2 km/h 85% 0 mm WeatherDisplay:10.37 W/m2 CLR
08:56 21.2 °C 18.4 °C 1020.5 hPa NE 5.6 km/h 5.6 km/h 84% 0 mm WeatherDisplay:10.37 W/m2 CLR
09:01 21.5 °C 18.4 °C 1020.5 hPa NE 5.6 km/h 5.6 km/h 83% 0 mm WeatherDisplay:10.37 W/m2 CLR
09:06 21.7 °C 18.8 °C 1020.5 hPa NE 5.6 km/h 5.6 km/h 84% 0 mm WeatherDisplay:10.37 W/m2 CLR
09:11 21.9 °C 18.8 °C 1020.5 hPa NE 4.8 km/h 4.8 km/h 83% 0 mm WeatherDisplay:10.37 W/m2 CLR
09:16 22 °C 18.8 °C 1020.5 hPa NE 4.8 km/h 4.8 km/h 82% 0 mm WeatherDisplay:10.37 W/m2 CLR
09:21 22.3 °C 19.1 °C 1020.5 hPa NE 5.6 km/h 5.6 km/h 82% 0 mm WeatherDisplay:10.37 W/m2 CLR
09:26 22.4 °C 18.7 °C 1020.5 hPa NE 3.7 km/h 3.7 km/h 80% 0 mm WeatherDisplay:10.37 W/m2 CLR
09:31 22.6 °C 18.7 °C 1020.5 hPa NE 5.6 km/h 5.6 km/h 79% 0 mm WeatherDisplay:10.37 W/m2 CLR
09:36 22.8 °C 19 °C 1020.2 hPa NE 1.9 km/h 1.9 km/h 79% 0 mm WeatherDisplay:10.37 W/m2 CLR
09:41 23.2 °C 19.3 °C 1020.2 hPa NE 4.8 km/h 4.8 km/h 79% 0 mm WeatherDisplay:10.37 W/m2 CLR
09:46 23.7 °C 19.4 °C 1020.2 hPa NE 5.6 km/h 5.6 km/h 77% 0 mm WeatherDisplay:10.37 W/m2 CLR
09:51 23.9 °C 19.2 °C 1020.2 hPa NE 3.7 km/h 3.7 km/h 75% 0 mm WeatherDisplay:10.37 W/m2 CLR
09:56 24.4 °C 19.7 °C 1020.2 hPa NE 3.7 km/h 3.7 km/h 75% 0 mm WeatherDisplay:10.37 W/m2 CLR
10:01 24.8 °C 19.7 °C 1020.2 hPa NE 3.7 km/h 3.7 km/h 73% 0 mm WeatherDisplay:10.37 W/m2 CLR
10:06 25.1 °C 19.4 °C 1020.2 hPa NE 5.6 km/h 5.6 km/h 71% 0 mm WeatherDisplay:10.37 W/m2 CLR
10:11 25.2 °C 20 °C 1020.2 hPa NE 3.7 km/h 3.7 km/h 73% 0 mm WeatherDisplay:10.37 W/m2 CLR
10:16 25.6 °C 19.7 °C 1020.2 hPa NE 3.7 km/h 3.7 km/h 70% 0 mm WeatherDisplay:10.37 W/m2 CLR
10:21 26 °C 20.1 °C 1020.2 hPa SW 5.6 km/h 5.6 km/h 70% 0 mm WeatherDisplay:10.37 W/m2 CLR
10:26 26.1 °C 19.9 °C 1020.2 hPa South 7.4 km/h 7.4 km/h 69% 0 mm WeatherDisplay:10.37 W/m2 CLR
10:31 26.3 °C 20.4 °C 1020.2 hPa SW 5.6 km/h 5.6 km/h 70% 0 mm WeatherDisplay:10.37 W/m2 CLR
10:36 26.5 °C 20.3 °C 1020.2 hPa SW 5.6 km/h 5.6 km/h 69% 0 mm WeatherDisplay:10.37 W/m2 CLR
10:41 26.6 °C 19.9 °C 1020.2 hPa WSW 5.6 km/h 5.6 km/h 67% 0 mm WeatherDisplay:10.37 W/m2 CLR
10:46 26.8 °C 20.1 °C 1020.2 hPa SSW 3.7 km/h 3.7 km/h 67% 0 mm WeatherDisplay:10.37 W/m2 CLR
10:51 27 °C 20.3 °C 1020.2 hPa SSW 5.6 km/h 5.6 km/h 67% 0 mm WeatherDisplay:10.37 W/m2 CLR
10:56 27.1 °C 20.2 °C 1019.9 hPa West 5.6 km/h 5.6 km/h 66% 0 mm WeatherDisplay:10.37 W/m2 CLR
11:01 27 °C 20.3 °C 1020.2 hPa SW 5.6 km/h 5.6 km/h 67% 0 mm WeatherDisplay:10.37 W/m2 CLR
11:06 27.2 °C 20 °C 1020.2 hPa SSW 5.6 km/h 5.6 km/h 65% 0 mm WeatherDisplay:10.37 W/m2 CLR
11:11 27.4 °C 20 °C 1020.2 hPa West 7.4 km/h 7.4 km/h 64% 0 mm WeatherDisplay:10.37 W/m2 CLR
11:16 27.7 °C 19.7 °C 1020.2 hPa SW 7.4 km/h 7.4 km/h 62% 0 mm WeatherDisplay:10.37 W/m2 CLR
11:21 27.7 °C 19.4 °C 1020.2 hPa WSW 9.3 km/h 9.3 km/h 61% 0 mm WeatherDisplay:10.37 W/m2 CLR
11:26 27.7 °C 19.2 °C 1020.2 hPa SSW 9.3 km/h 9.3 km/h 60% 0 mm WeatherDisplay:10.37 W/m2 CLR
11:31 27.6 °C 19.6 °C 1019.9 hPa West 6.4 km/h 6.4 km/h 62% 0 mm WeatherDisplay:10.37 W/m2 CLR
11:36 27.8 °C 19.3 °C 1019.9 hPa SW 11.1 km/h 11.1 km/h 60% 0 mm WeatherDisplay:10.37 W/m2 CLR
11:41 27.9 °C 19.7 °C 1019.9 hPa West 6.4 km/h 6.4 km/h 61% 0 mm WeatherDisplay:10.37 W/m2 CLR
11:46 27.9 °C 19.7 °C 1020.2 hPa NNW 6.4 km/h 6.4 km/h 61% 0 mm WeatherDisplay:10.37 W/m2 CLR
11:51 27.9 °C 19.1 °C 1020.2 hPa West 14.8 km/h 14.8 km/h 59% 0 mm WeatherDisplay:10.37 W/m2 CLR
11:56 28 °C 18.7 °C 1019.9 hPa West 11.1 km/h 11.1 km/h 57% 0 mm WeatherDisplay:10.37 W/m2 CLR
12:01 28.1 °C 18.4 °C 1019.9 hPa South 5.6 km/h 5.6 km/h 56% 0 mm WeatherDisplay:10.37 W/m2 CLR
12:06 28.3 °C 18.4 °C 1019.9 hPa WSW 8 km/h 8 km/h 55% 0 mm WeatherDisplay:10.37 W/m2 CLR
12:11 28.4 °C 18.2 °C 1020.2 hPa WSW 16.7 km/h 16.7 km/h 54% 0 mm WeatherDisplay:10.37 W/m2 CLR
12:16 28.7 °C 17.2 °C 1020.2 hPa West 9.3 km/h 9.3 km/h 50% 0 mm WeatherDisplay:10.37 W/m2 CLR
12:21 28.6 °C 16.1 °C 1020.2 hPa SSW 11.1 km/h 11.1 km/h 47% 0 mm WeatherDisplay:10.37 W/m2 CLR
12:26 28.7 °C 17.2 °C 1020.2 hPa West 12.9 km/h 12.9 km/h 50% 0 mm WeatherDisplay:10.37 W/m2 CLR
12:31 28.7 °C 17.6 °C 1020.2 hPa SSW 9.3 km/h 9.3 km/h 51% 0 mm WeatherDisplay:10.37 W/m2 CLR
12:36 28.9 °C 17.1 °C 1020.2 hPa WSW 9.3 km/h 9.3 km/h 49% 0 mm WeatherDisplay:10.37 W/m2 CLR
12:41 28.9 °C 17.1 °C 1020.2 hPa West 9.3 km/h 9.3 km/h 49% 0 mm WeatherDisplay:10.37 W/m2 CLR
12:46 29.1 °C 17.6 °C 1020.2 hPa South 9.3 km/h 9.3 km/h 50% 0 mm WeatherDisplay:10.37 W/m2 SCT
12:51 29.6 °C 17.1 °C 1020.2 hPa SSW 11.1 km/h 11.1 km/h 47% 0 mm WeatherDisplay:10.37 W/m2 SCT
12:56 29.7 °C 17.4 °C 1020.2 hPa South 9.3 km/h 9.3 km/h 48% 0 mm WeatherDisplay:10.37 W/m2 SCT
13:01 29.6 °C 17.1 °C 1020.2 hPa WSW 6.4 km/h 6.4 km/h 47% 0 mm WeatherDisplay:10.37 W/m2 SCT
13:06 29.2 °C 17.1 °C 1019.9 hPa WSW 7.4 km/h 7.4 km/h 48% 0 mm WeatherDisplay:10.37 W/m2 SCT
13:11 29.3 °C 16.4 °C 1020.2 hPa SSW 6.4 km/h 6.4 km/h 46% 0 mm WeatherDisplay:10.37 W/m2 SCT
13:16 29.4 °C 16.6 °C 1020.2 hPa South 14.8 km/h 14.8 km/h 46% 0 mm WeatherDisplay:10.37 W/m2 SCT
13:21 29.6 °C 16 °C 1020.2 hPa South 7.4 km/h 7.4 km/h 44% 0 mm WeatherDisplay:10.37 W/m2 SCT
13:26 29.7 °C 16.5 °C 1020.2 hPa NW 9.3 km/h 9.3 km/h 45% 0 mm WeatherDisplay:10.37 W/m2 SCT
13:31 29.8 °C 16.6 °C 1020.2 hPa West 9.3 km/h 9.3 km/h 45% 0 mm WeatherDisplay:10.37 W/m2 SCT
13:36 29.7 °C 15.7 °C 1019.9 hPa SE 9.3 km/h 9.3 km/h 43% 0 mm WeatherDisplay:10.37 W/m2 SCT
13:41 29.7 °C 17.2 °C 1019.9 hPa WSW 5.6 km/h 5.6 km/h 47% 0 mm WeatherDisplay:10.37 W/m2 SCT
13:46 30 °C 17.1 °C 1019.9 hPa SW 9.3 km/h 9.3 km/h 46% 0 mm WeatherDisplay:10.37 W/m2 SCT
13:51 30.2 °C 17.3 °C 1019.9 hPa SSW 9.3 km/h 9.3 km/h 46% 0 mm WeatherDisplay:10.37 W/m2 SCT
13:56 30.2 °C 16.6 °C 1019.9 hPa SW 11.1 km/h 11.1 km/h 44% 0 mm WeatherDisplay:10.37 W/m2 SCT
14:01 30.2 °C 16.6 °C 1019.9 hPa West 7.4 km/h 7.4 km/h 44% 0 mm WeatherDisplay:10.37 W/m2 SCT
14:06 30.2 °C 16.9 °C 1019.9 hPa SW 9.3 km/h 9.3 km/h 45% 0 mm WeatherDisplay:10.37 W/m2 SCT
14:11 30.2 °C 16.6 °C 1019.9 hPa South 9.3 km/h 9.3 km/h 44% 0 mm WeatherDisplay:10.37 W/m2 SCT
14:16 30.6 °C 16.9 °C 1019.9 hPa South 5.6 km/h 5.6 km/h 44% 0 mm WeatherDisplay:10.37 W/m2 SCT
14:21 31 °C 16.9 °C 1019.9 hPa SSW 16.7 km/h 16.7 km/h 43% 0 mm WeatherDisplay:10.37 W/m2 SCT
14:26 30.8 °C 16.7 °C 1019.9 hPa SW 9.3 km/h 9.3 km/h 43% 0 mm WeatherDisplay:10.37 W/m2 SCT
14:31 30.6 °C 16.6 °C 1019.5 hPa WNW 5.6 km/h 5.6 km/h 43% 0 mm WeatherDisplay:10.37 W/m2 SCT
14:36 30.9 °C 17.2 °C 1019.5 hPa SW 5.6 km/h 5.6 km/h 44% 0 mm WeatherDisplay:10.37 W/m2 SCT
14:41 31.1 °C 16.3 °C 1019.5 hPa NE 5.6 km/h 5.6 km/h 41% 0 mm WeatherDisplay:10.37 W/m2 SCT
14:46 31.2 °C 16.3 °C 1019.2 hPa SE 5.6 km/h 5.6 km/h 41% 0 mm WeatherDisplay:10.37 W/m2 SCT
14:51 31.4 °C 16.9 °C 1019.2 hPa WSW 12.9 km/h 12.9 km/h 42% 0 mm WeatherDisplay:10.37 W/m2 SCT
14:56 31.1 °C 16.3 °C 1019.5 hPa SW 11.1 km/h 11.1 km/h 41% 0 mm WeatherDisplay:10.37 W/m2 SCT
15:01 31 °C 16.6 °C 1019.2 hPa WSW 5.6 km/h 5.6 km/h 42% 0 mm WeatherDisplay:10.37 W/m2 SCT
15:06 30.8 °C 16.4 °C 1019.5 hPa SSW 13 km/h 13 km/h 42% 0 mm WeatherDisplay:10.37 W/m2 CLR
15:11 30.6 °C 16.6 °C 1019.5 hPa West 5.6 km/h 5.6 km/h 43% 0 mm WeatherDisplay:10.37 W/m2 CLR
15:16 30.8 °C 16.4 °C 1019.5 hPa North 11.1 km/h 11.1 km/h 42% 0 mm WeatherDisplay:10.37 W/m2 CLR
15:21 31.1 °C 17 °C 1019.5 hPa NNW 7.4 km/h 7.4 km/h 43% 0 mm WeatherDisplay:10.37 W/m2 CLR
15:26 31.3 °C 16.8 °C 1019.5 hPa SW 7.4 km/h 7.4 km/h 42% 0 mm WeatherDisplay:10.37 W/m2 SCT
15:31 31.5 °C 16.6 °C 1019.2 hPa WNW 13 km/h 13 km/h 41% 0 mm WeatherDisplay:10.37 W/m2 SCT
15:36 31.5 °C 16.6 °C 1019.2 hPa SSW 9.3 km/h 9.3 km/h 41% 0 mm WeatherDisplay:10.37 W/m2 SCT
15:41 31.8 °C 16.2 °C 1019.2 hPa WSW 5.6 km/h 5.6 km/h 39% 0 mm WeatherDisplay:10.37 W/m2 SCT
15:46 31.4 °C 16.2 °C 1019.5 hPa SW 5.6 km/h 5.6 km/h 40% 0 mm WeatherDisplay:10.37 W/m2 BKN
15:51 30.9 °C 16.1 °C 1019.5 hPa South 13 km/h 13 km/h 41% 0 mm WeatherDisplay:10.37 W/m2 BKN
15:56 30.7 °C 16.3 °C 1019.5 hPa WNW 7.4 km/h 7.4 km/h 42% 0 mm WeatherDisplay:10.37 W/m2 BKN
16:01 30.9 °C 16.4 °C 1019.5 hPa North 8 km/h 8 km/h 42% 0 mm WeatherDisplay:10.37 W/m2 BKN
16:06 31.1 °C 16.3 °C 1019.5 hPa NW 11.1 km/h 11.1 km/h 41% 0 mm WeatherDisplay:10.37 W/m2 OVC
16:11 31.2 °C 16.4 °C 1019.5 hPa SSW 5.6 km/h 5.6 km/h 41% 0 mm WeatherDisplay:10.37 W/m2 OVC
16:16 31.2 °C 15.9 °C 1019.5 hPa NNW 3.7 km/h 3.7 km/h 40% 0 mm WeatherDisplay:10.37 W/m2 OVC
16:21 31.4 °C 16.2 °C 1019.5 hPa NNW 1.9 km/h   40% 0 mm WeatherDisplay:10.37 W/m2 OVC
16:26 31.6 °C 17.1 °C 1019.5 hPa SE 5.6 km/h 5.6 km/h 42% 0 mm WeatherDisplay:10.37 W/m2 BKN
16:31 30.8 °C 17.5 °C 1019.9 hPa East 16.7 km/h 16.7 km/h 45% 0 mm WeatherDisplay:10.37 W/m2 BKN
16:36 29.8 °C 16.9 °C 1019.9 hPa South 11.1 km/h 11.1 km/h 46% 0 mm WeatherDisplay:10.37 W/m2 BKN
16:41 28.8 °C 17 °C 1019.9 hPa East 13 km/h 13 km/h 49% 0 mm WeatherDisplay:10.37 W/m2 BKN
16:46 28.6 °C 17.2 °C 1019.5 hPa SSE 16.7 km/h 16.7 km/h 50% 0 mm WeatherDisplay:10.37 W/m2 CLR
16:51 28.9 °C 17.4 °C 1019.2 hPa SE 13 km/h 13 km/h 50% 0 mm WeatherDisplay:10.37 W/m2 CLR
16:53 29.3 °C 17.1 °C 1019.2 hPa East 5.6 km/h 5.6 km/h 48% 0 mm WeatherDisplay:10.37 W/m2 CLR
16:58 29.9 °C 17.1 °C 1019.2 hPa SE 5.6 km/h 5.6 km/h 46% 0 mm WeatherDisplay:10.37 W/m2 CLR
17:03 30.4 °C 16.7 °C 1019.2 hPa SSE 9.3 km/h 9.3 km/h 44% 0 mm WeatherDisplay:10.37 W/m2 CLR
17:08 30.2 °C 16.2 °C 1019.2 hPa South 7.4 km/h 7.4 km/h 43% 0 mm WeatherDisplay:10.37 W/m2 CLR
17:13 29.8 °C 15.5 °C 1019.2 hPa SW 11.1 km/h 11.1 km/h 42% 0 mm WeatherDisplay:10.37 W/m2 CLR
17:18 29.8 °C 15.1 °C 1019.2 hPa SE 9.3 km/h 9.3 km/h 41% 0 mm WeatherDisplay:10.37 W/m2 CLR
17:23 29.9 °C 15.2 °C 1018.8 hPa SE 7.4 km/h 7.4 km/h 41% 0 mm WeatherDisplay:10.37 W/m2 CLR
17:28 30.3 °C 14.8 °C 1019.2 hPa South 5.6 km/h 5.6 km/h 39% 0 mm WeatherDisplay:10.37 W/m2 CLR
17:33 30.7 °C 14.7 °C 1018.8 hPa SSE 7.4 km/h 7.4 km/h 38% 0 mm WeatherDisplay:10.37 W/m2 CLR
17:38 30.8 °C 14.8 °C 1019.2 hPa South 8 km/h 8 km/h 38% 0 mm WeatherDisplay:10.37 W/m2 CLR
17:43 31.2 °C 14.7 °C 1019.2 hPa South 7.4 km/h 7.4 km/h 37% 0 mm WeatherDisplay:10.37 W/m2 CLR
17:48 31.5 °C 14.6 °C 1019.2 hPa SSW 5.6 km/h 5.6 km/h 36% 0 mm WeatherDisplay:10.37 W/m2 CLR
17:53 31.7 °C 14.3 °C 1019.2 hPa South 5.6 km/h 5.6 km/h 35% 0 mm WeatherDisplay:10.37 W/m2 CLR
17:55 31.7 °C 14.3 °C 1019.2 hPa South 3.7 km/h 3.7 km/h 35% 0 mm WeatherDisplay:10.37 W/m2 CLR
18:00 31.8 °C 14.4 °C 1019.2 hPa SE 5.6 km/h 5.6 km/h 35% 0 mm WeatherDisplay:10.37 W/m2 CLR
18:05 31.7 °C 14.3 °C 1018.8 hPa SE 3.7 km/h 3.7 km/h 35% 0 mm WeatherDisplay:10.37 W/m2 CLR
18:10 31.5 °C 14.6 °C 1018.8 hPa SE 3.7 km/h 3.7 km/h 36% 0 mm WeatherDisplay:10.37 W/m2 CLR
18:15 31.4 °C 15 °C 1018.8 hPa NNE 3.7 km/h 3.7 km/h 37% 0 mm WeatherDisplay:10.37 W/m2 CLR
18:20 31.1 °C 15.4 °C 1019.2 hPa East 7.4 km/h 7.4 km/h 39% 0 mm WeatherDisplay:10.37 W/m2 CLR
18:21 31 °C 15.4 °C 1019.2 hPa ESE 7.4 km/h 7.4 km/h 39% 0 mm WeatherDisplay:10.37 W/m2 CLR
18:26 30.6 °C 15.8 °C 1019.2 hPa ENE 5.6 km/h 5.6 km/h 41% 0 mm WeatherDisplay:10.37 W/m2 CLR
18:31 30.1 °C 15.3 °C 1019.2 hPa East 11.3 km/h 11.3 km/h 41% 0 mm WeatherDisplay:10.37 W/m2 CLR
18:36 29.6 °C 15.7 °C 1019.2 hPa East 13 km/h 13 km/h 43% 0 mm WeatherDisplay:10.37 W/m2 CLR
18:41 29.3 °C 15.4 °C 1019.2 hPa East 11.3 km/h 11.3 km/h 43% 0 mm WeatherDisplay:10.37 W/m2 CLR
18:46 29.1 °C 15.6 °C 1019.2 hPa East 5.6 km/h 5.6 km/h 44% 0 mm WeatherDisplay:10.37 W/m2 CLR
18:51 29 °C 15.8 °C 1019.2 hPa East 5.6 km/h 5.6 km/h 45% 0 mm WeatherDisplay:10.37 W/m2 CLR
18:56 28.8 °C 16.1 °C 1019.2 hPa East 11.1 km/h 11.1 km/h 46% 0 mm WeatherDisplay:10.37 W/m2 CLR
19:01 28.7 °C 15.9 °C 1019.2 hPa ENE 9.3 km/h 9.3 km/h 46% 0 mm WeatherDisplay:10.37 W/m2 CLR
19:06 28.6 °C 16.8 °C 1019.2 hPa ESE 5.6 km/h 5.6 km/h 49% 0 mm WeatherDisplay:10.37 W/m2 CLR
19:11 28.6 °C 17.2 °C 1019.2 hPa ESE 3.7 km/h 3.7 km/h 50% 0 mm WeatherDisplay:10.37 W/m2 CLR
19:12 28.6 °C 17.2 °C 1019.2 hPa ESE 3.7 km/h 3.7 km/h 50% 0 mm WeatherDisplay:10.37 W/m2 CLR
19:17 28.6 °C 17.2 °C 1019.2 hPa ESE 5.6 km/h 5.6 km/h 50% 0 mm WeatherDisplay:10.37 W/m2 CLR
19:22 28.6 °C 17.2 °C 1019.2 hPa ESE 3.2 km/h 3.2 km/h 50% 0 mm WeatherDisplay:10.37 W/m2 CLR
19:27 28.5 °C 17.3 °C 1019.2 hPa SSE 5.6 km/h 5.6 km/h 51% 0 mm WeatherDisplay:10.37 W/m2 CLR
19:32 28.4 °C 17.6 °C 1019.2 hPa SSE 5.6 km/h 5.6 km/h 52% 0 mm WeatherDisplay:10.37 W/m2 CLR
19:37 28.3 °C 17.8 °C 1019.2 hPa East 3.7 km/h 3.7 km/h 53% 0 mm WeatherDisplay:10.37 W/m2 CLR
19:42 28.2 °C 18 °C 1019.2 hPa ESE 1.9 km/h 1.9 km/h 54% 0 mm WeatherDisplay:10.37 W/m2 CLR
19:47 28.1 °C 17.9 °C 1019.5 hPa ESE 1.9 km/h 1.9 km/h 54% 0 mm WeatherDisplay:10.37 W/m2 CLR
19:52 28 °C 18.1 °C 1019.2 hPa ESE 1.9 km/h 1.9 km/h 55% 0 mm WeatherDisplay:10.37 W/m2 CLR
19:57 27.9 °C 18 °C 1019.5 hPa ESE 3.7 km/h 3.7 km/h 55% 0 mm WeatherDisplay:10.37 W/m2 CLR
20:02 27.7 °C 18.1 °C 1019.5 hPa ESE 3.7 km/h 3.7 km/h 56% 0 mm WeatherDisplay:10.37 W/m2 CLR
20:07 27.6 °C 18.6 °C 1019.5 hPa ESE 3.7 km/h 3.7 km/h 58% 0 mm WeatherDisplay:10.37 W/m2 CLR
20:12 27.4 °C 18.4 °C 1019.9 hPa East 5.6 km/h 5.6 km/h 58% 0 mm WeatherDisplay:10.37 W/m2 CLR
20:17 27.3 °C 18.3 °C 1019.5 hPa East 3.7 km/h 3.7 km/h 58% 0 mm WeatherDisplay:10.37 W/m2 CLR
20:22 27.2 °C 18.2 °C 1019.9 hPa East 3.7 km/h 3.7 km/h 58% 0 mm WeatherDisplay:10.37 W/m2 CLR
20:27 27.1 °C 18.3 °C 1019.5 hPa ENE 5.6 km/h 5.6 km/h 59% 0 mm WeatherDisplay:10.37 W/m2 CLR
20:32 26.9 °C 18.2 °C 1019.9 hPa East 3.7 km/h 3.7 km/h 59% 0 mm WeatherDisplay:10.37 W/m2 CLR
20:37 26.7 °C 18.6 °C 1019.9 hPa East 1.9 km/h 1.9 km/h 61% 0 mm WeatherDisplay:10.37 W/m2 CLR
20:42 26.5 °C 18.3 °C 1019.9 hPa ESE 3.7 km/h 3.7 km/h 61% 0 mm WeatherDisplay:10.37 W/m2 CLR
20:47 26.3 °C 18.1 °C 1019.9 hPa ESE 3.7 km/h 3.7 km/h 61% 0 mm WeatherDisplay:10.37 W/m2 CLR
20:52 26.1 °C 18.7 °C 1019.9 hPa ESE 1.9 km/h 1.9 km/h 64% 0 mm WeatherDisplay:10.37 W/m2 CLR
20:57 25.7 °C 19.1 °C 1020.2 hPa Calm     67% 0 mm WeatherDisplay:10.37 W/m2 CLR
21:02 25.2 °C 18.9 °C 1020.2 hPa Calm     68% 0 mm WeatherDisplay:10.37 W/m2 CLR
21:07 24.6 °C 18.7 °C 1020.2 hPa ESE 1.9 km/h 1.9 km/h 70% 0 mm WeatherDisplay:10.37 W/m2 CLR
21:12 24.1 °C 18.5 °C 1020.2 hPa ESE 1.9 km/h 1.9 km/h 71% 0 mm WeatherDisplay:10.37 W/m2 CLR
21:17 23.8 °C 18.4 °C 1020.2 hPa ESE 1.9 km/h 1.9 km/h 72% 0 mm WeatherDisplay:10.37 W/m2 CLR
21:22 23.6 °C 18.4 °C 1020.2 hPa ESE 1.9 km/h 1.9 km/h 73% 0 mm WeatherDisplay:10.37 W/m2 CLR
21:27 23.4 °C 18.3 °C 1020.5 hPa ESE 1.9 km/h   73% 0 mm WeatherDisplay:10.37 W/m2 CLR
21:32 23.3 °C 18.3 °C 1020.5 hPa Calm     74% 0 mm WeatherDisplay:10.37 W/m2 CLR
21:37 23.1 °C 18.4 °C 1020.5 hPa Calm     75% 0 mm WeatherDisplay:10.37 W/m2 CLR
21:42 22.9 °C 18.3 °C 1020.5 hPa ESE 3.2 km/h 3.2 km/h 75% 0 mm WeatherDisplay:10.37 W/m2 CLR
21:47 22.8 °C 18.3 °C 1020.5 hPa ESE 3.7 km/h 3.7 km/h 76% 0 mm WeatherDisplay:10.37 W/m2 CLR
21:52 22.7 °C 18.2 °C 1020.5 hPa ESE 1.9 km/h 1.9 km/h 76% 0 mm WeatherDisplay:10.37 W/m2 CLR
21:57 22.6 °C 18.3 °C 1020.5 hPa ESE 1.9 km/h 1.9 km/h 77% 0 mm WeatherDisplay:10.37 W/m2 CLR
22:02 22.4 °C 18.1 °C 1020.5 hPa ESE 1.9 km/h 1.9 km/h 77% 0 mm WeatherDisplay:10.37 W/m2 CLR
22:07 22.3 °C 18.4 °C 1020.9 hPa ESE 3.7 km/h 3.7 km/h 79% 0 mm WeatherDisplay:10.37 W/m2 SCT
22:12 22.2 °C 18.3 °C 1020.9 hPa Calm     79% 0 mm WeatherDisplay:10.37 W/m2 SCT
22:17 21.9 °C 18.3 °C 1020.5 hPa ESE 3.7 km/h 3.7 km/h 80% 0 mm WeatherDisplay:10.37 W/m2 SCT
22:22 21.8 °C 18.3 °C 1020.9 hPa ESE 1.9 km/h 1.9 km/h 81% 0 mm WeatherDisplay:10.37 W/m2 SCT
22:27 21.6 °C 18.2 °C 1020.9 hPa Calm     81% 0 mm WeatherDisplay:10.37 W/m2 SCT
22:32 21.5 °C 18.3 °C 1020.9 hPa Calm     82% 0 mm WeatherDisplay:10.37 W/m2 SCT
22:37 21.4 °C 18.2 °C 1020.9 hPa Calm     82% 0 mm WeatherDisplay:10.37 W/m2 SCT
22:42 21.2 °C 18.2 °C 1020.9 hPa ESE 1.9 km/h 1.9 km/h 83% 0 mm WeatherDisplay:10.37 W/m2 SCT
22:47 21.1 °C 18.1 °C 1020.9 hPa ESE 1.9 km/h 1.9 km/h 83% 0 mm WeatherDisplay:10.37 W/m2 SCT
22:52 20.9 °C 18.1 °C 1021.2 hPa Calm     84% 0 mm WeatherDisplay:10.37 W/m2 SCT
22:57 20.7 °C 17.9 °C 1021.2 hPa Calm   0.2 km/h 84% 0 mm WeatherDisplay:10.37 W/m2 SCT
23:02 20.6 °C 18 °C 1020.9 hPa ESE 1.9 km/h   85% 0 mm WeatherDisplay:10.37 W/m2 SCT
23:07 20.5 °C 17.9 °C 1020.9 hPa Calm     85% 0 mm WeatherDisplay:10.37 W/m2 CLR
23:12 20.5 °C 18.1 °C 1020.9 hPa ESE 1.6 km/h 1.6 km/h 86% 0 mm WeatherDisplay:10.37 W/m2 CLR
23:17 20.6 °C 18.1 °C 1020.9 hPa ESE 5.6 km/h 5.6 km/h 86% 0 mm WeatherDisplay:10.37 W/m2 CLR
23:22 20.6 °C 18.2 °C 1020.9 hPa ESE 1.9 km/h 1.9 km/h 86% 0 mm WeatherDisplay:10.37 W/m2 CLR
23:27 20.7 °C 18.3 °C 1020.9 hPa ESE 3.7 km/h 3.7 km/h 86% 0 mm WeatherDisplay:10.37 W/m2 CLR
23:32 20.6 °C 18.2 °C 1021.2 hPa ESE 1.9 km/h 1.9 km/h 86% 0 mm WeatherDisplay:10.37 W/m2 CLR
23:37 20.6 °C 18.1 °C 1021.2 hPa Calm     86% 0 mm WeatherDisplay:10.37 W/m2 CLR
23:42 20.5 °C 17.9 °C 1021.2 hPa Calm   0.3 km/h 85% 0 mm WeatherDisplay:10.37 W/m2 CLR
23:47 20.3 °C 17.8 °C 1021.2 hPa Calm     86% 0 mm WeatherDisplay:10.37 W/m2 CLR
23:52 20.1 °C 17.7 °C 1021.2 hPa Calm     86% 0 mm WeatherDisplay:10.37 W/m2 CLR
23:57 19.9 °C 17.6 °C 1021.2 hPa Calm     87% 0 mm WeatherDisplay:10.37 W/m2 CLR
Smyth Weather
Compliments of Weather Underground - 3 mb